Aviation Digital Data Service (ADDS)

Output produced by METARs form (1149 UTC 16 February 2019)
found at http://www.aviationweather.gov/metar/data/
 
METAR text: KFAT 161053Z 00000KT 6SM BR BKN005 BKN150 04/04 A3017 RMK AO2 SLP218 T00440039
Conditions at: KFAT (FRESNO , CA, US) observed 1053 UTC 16 February 2019
Temperature: 4.4°C (40°F)
Dewpoint: 3.9°C (39°F) [RH = 97%]
Pressure (altimeter): 30.17 inches Hg (1021.8 mb)
[Sea-level pressure: 1021.8 mb]
Winds: calm
Visibility: 6 miles (10 km)
Ceiling: 500 feet AGL
Clouds: broken clouds at 500 feet AGL
broken clouds at 15000 feet AGL
Weather: BR  (mist)

Forecast for: KFAT (FRESNO , CA, US)
Text: KFAT 161120Z 1612/1712 00000KT 6SM BR VCSH BKN005 BKN150
Forecast period: 1200 to 1500 UTC 16 February 2019
Forecast type: FROM: standard forecast or significant change
Winds: calm
Visibility: 6 miles (10 km)
Ceiling: 500 feet AGL
Clouds: broken clouds at 500 feet AGL
broken clouds at 15000 feet AGL
Weather: BR VCSH  (mist, showers in vicinity)
Text: FM161500 13008KT P6SM -SHRA BKN030 OVC050
Forecast period: 1500 UTC 16 February 2019 to 1200 UTC 17 February 2019
Forecast type: FROM: standard forecast or significant change
Winds: from the SE (130 degrees) at 9 MPH (8 knots; 4.1 m/s)
Visibility: 6 or more miles 10+ km)
Ceiling: 3000 feet AGL
Clouds: broken clouds at 3000 feet AGL
overcast cloud deck at 5000 feet AGL
Weather: -SHRA  (light rain showers)